createdAt,value
2023-12-28T00:00:32.768Z,53.93
2023-12-28T00:01:32.760Z,52.04
2023-12-28T00:02:32.692Z,54.74
2023-12-28T00:03:32.817Z,54.15
2023-12-28T00:04:32.777Z,56.58
2023-12-28T00:05:32.677Z,51.98
2023-12-28T00:06:32.720Z,53.08
2023-12-28T00:07:32.711Z,53.73
2023-12-28T00:08:32.678Z,48.43
2023-12-28T00:09:32.723Z,47.92
2023-12-28T00:10:32.648Z,51.18
2023-12-28T00:11:32.636Z,53.00
2023-12-28T00:12:32.654Z,51.05
2023-12-28T00:13:32.616Z,50.60
2023-12-28T00:14:32.605Z,50.28
2023-12-28T00:15:32.649Z,54.08
2023-12-28T00:16:32.596Z,54.22
2023-12-28T00:17:32.625Z,53.66
2023-12-28T00:18:32.698Z,53.97
2023-12-28T00:19:32.676Z,53.18
2023-12-28T00:20:32.571Z,52.46
2023-12-28T00:21:32.603Z,51.82
2023-12-28T00:22:32.554Z,53.67
2023-12-28T00:23:32.576Z,52.83
2023-12-28T00:24:32.874Z,54.23
2023-12-28T00:25:32.538Z,48.57
2023-12-28T00:26:32.533Z,49.52
2023-12-28T00:27:33.967Z,53.24
2023-12-28T00:28:33.527Z,54.72
2023-12-28T00:29:32.545Z,53.60
2023-12-28T00:30:32.619Z,50.72
2023-12-28T00:31:32.570Z,48.29
2023-12-28T00:32:32.529Z,48.12
2023-12-28T00:33:32.583Z,53.29
2023-12-28T00:34:32.596Z,48.41
2023-12-28T00:35:32.477Z,49.73
2023-12-28T00:36:32.509Z,51.23
2023-12-28T00:37:32.470Z,51.78
2023-12-28T00:38:32.467Z,51.49
2023-12-28T00:39:32.468Z,53.38
2023-12-28T00:40:32.484Z,48.75
2023-12-28T00:41:32.434Z,53.61
2023-12-28T00:42:32.495Z,51.90
2023-12-28T00:43:32.440Z,52.44
2023-12-28T00:44:32.454Z,52.15
2023-12-28T00:45:32.508Z,49.03
2023-12-28T00:46:32.457Z,56.35
2023-12-28T00:47:32.510Z,52.46
2023-12-28T00:48:32.554Z,51.50
2023-12-28T00:49:32.668Z,54.40
2023-12-28T00:50:32.962Z,49.75
2023-12-28T00:51:32.508Z,53.05
2023-12-28T00:52:32.441Z,52.00
2023-12-28T00:53:32.426Z,54.80
2023-12-28T00:54:32.480Z,50.80
2023-12-28T00:55:32.602Z,52.07
2023-12-28T00:56:32.433Z,49.29
2023-12-28T00:57:32.538Z,51.03
2023-12-28T00:58:32.437Z,50.25
2023-12-28T00:59:32.377Z,52.75
2023-12-28T01:00:32.405Z,53.43
2023-12-28T01:01:32.413Z,57.16
2023-12-28T01:02:32.328Z,50.38
2023-12-28T01:03:32.467Z,47.81
2023-12-28T01:04:32.422Z,52.73
2023-12-28T01:05:32.384Z,53.42
2023-12-28T01:06:32.426Z,52.88
2023-12-28T01:07:32.832Z,52.50
2023-12-28T01:08:32.310Z,52.20
2023-12-28T01:09:32.379Z,54.54
2023-12-28T01:10:32.288Z,52.29
2023-12-28T01:11:32.589Z,51.04
2023-12-28T01:12:32.342Z,51.62
2023-12-28T01:13:32.527Z,53.08
2023-12-28T01:14:32.233Z,54.17
2023-12-28T01:15:32.296Z,53.75
2023-12-28T01:16:32.288Z,48.67
2023-12-28T01:17:32.468Z,49.12
2023-12-28T01:18:32.483Z,52.17
2023-12-28T01:19:32.424Z,50.96
2023-12-28T01:20:32.227Z,50.92
2023-12-28T01:21:32.374Z,51.95
2023-12-28T01:22:32.261Z,51.75
2023-12-28T01:23:32.350Z,52.39
2023-12-28T01:24:32.215Z,53.26
2023-12-28T01:25:32.422Z,51.62
2023-12-28T01:26:32.159Z,48.73
2023-12-28T01:27:32.378Z,47.76
2023-12-28T01:28:32.279Z,47.02
2023-12-28T01:29:32.152Z,47.08
2023-12-28T01:30:32.190Z,49.39
2023-12-28T01:31:32.345Z,51.89
2023-12-28T01:32:32.148Z,52.69
2023-12-28T01:33:32.225Z,50.15
2023-12-28T01:34:32.234Z,48.69
2023-12-28T01:35:32.132Z,54.50
2023-12-28T01:36:32.174Z,52.72
2023-12-28T01:37:32.115Z,48.87
2023-12-28T01:38:32.096Z,49.82
2023-12-28T01:39:32.121Z,50.99
2023-12-28T01:40:32.138Z,53.81
2023-12-28T01:41:32.072Z,51.18
2023-12-28T01:42:32.084Z,52.69
2023-12-28T01:43:32.058Z,52.39
2023-12-28T01:44:32.151Z,52.79
2023-12-28T01:45:32.106Z,52.48
2023-12-28T01:46:32.052Z,50.11
2023-12-28T01:47:32.068Z,50.16
2023-12-28T01:48:32.114Z,52.04
2023-12-28T01:49:32.104Z,51.36
2023-12-28T01:50:32.026Z,53.04
2023-12-28T01:51:33.023Z,52.82
2023-12-28T01:52:32.034Z,48.83
2023-12-28T01:53:32.014Z,49.17
2023-12-28T01:54:32.047Z,54.27
2023-12-28T01:55:31.984Z,52.13
2023-12-28T01:56:32.087Z,52.30
2023-12-28T01:57:32.012Z,52.73
2023-12-28T01:58:31.987Z,51.52
2023-12-28T01:59:31.954Z,50.02
2023-12-28T02:00:32.015Z,52.57
2023-12-28T02:01:31.967Z,54.80
2023-12-28T02:02:31.951Z,57.57
2023-12-28T02:03:31.993Z,53.41
2023-12-28T02:04:31.985Z,52.61
2023-12-28T02:05:32.525Z,54.69
2023-12-28T02:06:32.041Z,50.53
2023-12-28T02:07:31.920Z,50.93
2023-12-28T02:08:31.903Z,49.69
2023-12-28T02:09:31.944Z,48.30
2023-12-28T02:10:31.894Z,49.36
2023-12-28T02:11:31.888Z,50.17
2023-12-28T02:12:31.944Z,49.26
2023-12-28T02:13:31.878Z,53.30
2023-12-28T02:14:31.848Z,57.29
2023-12-28T02:15:31.916Z,51.52
2023-12-28T02:16:31.847Z,51.38
2023-12-28T02:17:31.883Z,48.79
2023-12-28T02:18:31.946Z,48.70
2023-12-28T02:19:31.834Z,53.85
2023-12-28T02:20:31.842Z,50.69
2023-12-28T02:21:31.893Z,51.45
2023-12-28T02:22:31.812Z,53.25
2023-12-28T02:23:31.822Z,52.82
2023-12-28T02:24:31.844Z,53.69
2023-12-28T02:25:31.794Z,53.19
2023-12-28T02:26:31.790Z,49.28
2023-12-28T02:27:31.806Z,52.48
2023-12-28T02:28:31.793Z,49.87
2023-12-28T02:29:31.772Z,51.34
2023-12-28T02:30:31.849Z,52.81
2023-12-28T02:31:32.017Z,53.55
2023-12-28T02:32:31.801Z,51.83
2023-12-28T02:33:31.827Z,51.46
2023-12-28T02:34:31.819Z,51.14
2023-12-28T02:35:31.761Z,47.94
2023-12-28T02:36:31.742Z,48.02
2023-12-28T02:37:31.722Z,49.31
2023-12-28T02:38:31.712Z,49.24
2023-12-28T02:39:31.812Z,47.62
2023-12-28T02:40:31.705Z,51.47
2023-12-28T02:41:31.707Z,50.29
2023-12-28T02:42:31.766Z,54.11
2023-12-28T02:43:31.686Z,52.85
2023-12-28T02:44:31.706Z,49.14
2023-12-28T02:45:31.732Z,53.60
2023-12-28T02:46:31.660Z,52.24
2023-12-28T02:47:31.657Z,50.79
2023-12-28T02:48:31.789Z,48.85
2023-12-28T02:49:31.714Z,48.06
2023-12-28T02:50:31.649Z,53.62
2023-12-28T02:51:31.694Z,55.22
2023-12-28T02:52:31.615Z,49.93
2023-12-28T02:53:31.624Z,53.38
2023-12-28T02:54:31.642Z,53.47
2023-12-28T02:55:31.675Z,48.13
2023-12-28T02:56:31.606Z,53.45
2023-12-28T02:57:31.606Z,54.06
2023-12-28T02:58:31.585Z,53.06
2023-12-28T02:59:31.584Z,54.24
2023-12-28T03:00:31.668Z,50.99
2023-12-28T03:01:31.626Z,49.57
2023-12-28T03:02:31.602Z,49.40
2023-12-28T03:03:31.721Z,52.89
2023-12-28T03:04:31.535Z,50.10
2023-12-28T03:05:31.572Z,52.60
2023-12-28T03:06:31.559Z,54.36
2023-12-28T03:07:31.522Z,54.74
2023-12-28T03:08:31.516Z,53.67
2023-12-28T03:09:31.525Z,56.98
2023-12-28T03:10:31.511Z,54.49
2023-12-28T03:11:31.517Z,49.16
2023-12-28T03:12:31.537Z,48.49
2023-12-28T03:13:31.465Z,51.79
2023-12-28T03:14:31.497Z,52.78
2023-12-28T03:15:31.491Z,48.68
2023-12-28T03:16:33.713Z,52.97
2023-12-28T03:17:31.472Z,53.68
2023-12-28T03:18:31.612Z,50.55
2023-12-28T03:19:31.578Z,47.54
2023-12-28T03:20:31.451Z,48.30
2023-12-28T03:21:31.470Z,47.88
2023-12-28T03:22:31.440Z,51.70
2023-12-28T03:23:31.429Z,50.41
2023-12-28T03:24:31.428Z,52.65
2023-12-28T03:25:31.406Z,50.88
2023-12-28T03:26:31.410Z,54.64
2023-12-28T03:27:31.714Z,52.06
2023-12-28T03:28:31.397Z,55.42
2023-12-28T03:29:31.381Z,50.24
2023-12-28T03:30:31.439Z,50.57
2023-12-28T03:31:31.443Z,50.20
2023-12-28T03:32:31.395Z,50.63
2023-12-28T03:33:31.422Z,52.01
2023-12-28T03:34:31.515Z,48.92
2023-12-28T03:35:31.346Z,49.75
2023-12-28T03:36:31.391Z,50.11
2023-12-28T03:37:31.432Z,50.55
2023-12-28T03:38:31.330Z,54.46
2023-12-28T03:39:31.330Z,51.22
2023-12-28T03:40:31.308Z,56.27
2023-12-28T03:41:31.304Z,49.73
2023-12-28T03:42:31.358Z,48.45
2023-12-28T03:43:31.286Z,49.46
2023-12-28T03:44:31.291Z,49.92
2023-12-28T03:45:31.312Z,53.65
2023-12-28T03:46:31.272Z,52.45
2023-12-28T03:47:31.472Z,51.23
2023-12-28T03:48:31.444Z,52.10
2023-12-28T03:49:31.310Z,51.43
2023-12-28T03:50:31.240Z,54.62
2023-12-28T03:51:31.298Z,51.21
2023-12-28T03:52:31.521Z,50.84
2023-12-28T03:53:31.269Z,50.69
2023-12-28T03:54:32.022Z,53.35
2023-12-28T03:55:31.953Z,52.97
2023-12-28T03:56:31.236Z,54.10
2023-12-28T03:57:31.222Z,52.60
2023-12-28T03:58:31.200Z,55.52
2023-12-28T03:59:31.205Z,54.37
2023-12-28T04:00:31.183Z,52.16
2023-12-28T04:01:31.202Z,54.54
2023-12-28T04:02:31.171Z,52.44
2023-12-28T04:03:31.355Z,51.79
2023-12-28T04:04:31.293Z,51.22
2023-12-28T04:05:31.154Z,53.17
2023-12-28T04:06:31.175Z,54.48
2023-12-28T04:07:31.133Z,54.88
2023-12-28T04:08:31.290Z,53.09
2023-12-28T04:09:31.159Z,51.69
2023-12-28T04:10:31.122Z,54.47
2023-12-28T04:11:31.103Z,56.65
2023-12-28T04:12:31.135Z,53.20
2023-12-28T04:13:31.096Z,56.11
2023-12-28T04:14:31.109Z,52.97
2023-12-28T04:15:31.250Z,54.73
2023-12-28T04:16:31.098Z,54.39
2023-12-28T04:17:31.099Z,55.09
2023-12-28T04:18:31.273Z,54.88
2023-12-28T04:19:31.124Z,57.90
2023-12-28T04:20:31.088Z,57.64
2023-12-28T04:21:31.083Z,56.63
2023-12-28T04:22:31.062Z,57.00
2023-12-28T04:23:31.032Z,56.67
2023-12-28T04:24:31.050Z,55.78
2023-12-28T04:25:31.024Z,56.15
2023-12-28T04:26:31.025Z,53.48
2023-12-28T04:27:31.046Z,58.35
2023-12-28T04:28:31.004Z,55.38
2023-12-28T04:29:30.984Z,57.89
2023-12-28T04:30:31.102Z,56.09
2023-12-28T04:31:31.057Z,57.29
2023-12-28T04:32:30.983Z,56.28
2023-12-28T04:33:30.966Z,58.17
2023-12-28T04:34:30.984Z,58.25
2023-12-28T04:35:30.986Z,53.65
2023-12-28T04:36:30.995Z,59.14
2023-12-28T04:37:30.934Z,58.68
2023-12-28T04:38:30.925Z,55.84
2023-12-28T04:39:30.952Z,58.38
2023-12-28T04:40:30.929Z,57.60
2023-12-28T04:41:30.914Z,60.90
2023-12-28T04:42:30.967Z,58.28
2023-12-28T04:43:30.893Z,56.29
2023-12-28T04:44:30.896Z,58.05
2023-12-28T04:45:30.934Z,58.63
2023-12-28T04:46:30.881Z,58.51
2023-12-28T04:47:30.893Z,57.25
2023-12-28T04:48:30.996Z,55.33
2023-12-28T04:49:30.915Z,58.22
2023-12-28T04:50:30.850Z,58.78
2023-12-28T04:51:30.897Z,60.05
2023-12-28T04:52:30.838Z,60.38
2023-12-28T04:53:30.844Z,58.69
2023-12-28T04:54:30.840Z,55.99
2023-12-28T04:55:30.833Z,56.94
2023-12-28T04:56:30.821Z,57.50
2023-12-28T04:57:30.819Z,58.42
2023-12-28T04:58:30.813Z,59.21
2023-12-28T04:59:30.784Z,53.74
2023-12-28T05:00:30.921Z,57.57
2023-12-28T05:01:30.867Z,58.64
2023-12-28T05:02:30.891Z,60.69
2023-12-28T05:03:30.862Z,58.22
2023-12-28T05:04:30.809Z,59.26
2023-12-28T05:05:30.808Z,59.15
2023-12-28T05:06:31.002Z,56.87
2023-12-28T05:07:30.749Z,56.92
2023-12-28T05:08:30.729Z,58.44
2023-12-28T05:09:30.880Z,59.77
2023-12-28T05:10:30.718Z,58.39
2023-12-28T05:11:30.715Z,57.39
2023-12-28T05:12:42.731Z,60.07
2023-12-28T05:13:32.779Z,58.47
2023-12-28T05:14:30.708Z,59.58
2023-12-28T05:15:30.914Z,58.06
2023-12-28T05:16:30.687Z,59.79
2023-12-28T05:17:30.711Z,59.98
2023-12-28T05:18:30.895Z,61.13
2023-12-28T05:19:30.887Z,57.39
2023-12-28T05:20:30.699Z,59.70
2023-12-28T05:21:30.735Z,59.99
2023-12-28T05:22:30.648Z,59.04
2023-12-28T05:23:30.640Z,60.21
2023-12-28T05:24:30.803Z,60.29
2023-12-28T05:25:30.648Z,59.28
2023-12-28T05:26:30.667Z,59.73
2023-12-28T05:27:30.718Z,59.02
2023-12-28T05:28:30.651Z,61.24
2023-12-28T05:29:30.750Z,58.64
2023-12-28T05:30:30.777Z,60.49
2023-12-28T05:31:30.758Z,59.48
2023-12-28T05:32:30.700Z,58.54
2023-12-28T05:33:30.742Z,60.15
2023-12-28T05:34:30.781Z,60.60
2023-12-28T05:35:30.577Z,58.65
2023-12-28T05:36:30.583Z,61.48
2023-12-28T05:37:30.564Z,60.01
2023-12-28T05:38:30.548Z,57.39
2023-12-28T05:39:30.578Z,61.37
2023-12-28T05:40:30.540Z,58.49
2023-12-28T05:41:30.551Z,60.53
2023-12-28T05:42:30.553Z,60.59
2023-12-28T05:43:30.528Z,61.19
2023-12-28T05:44:31.649Z,59.10
2023-12-28T05:45:30.524Z,58.93
2023-12-28T05:46:30.498Z,60.42
2023-12-28T05:47:30.525Z,61.39
2023-12-28T05:48:30.628Z,58.85
2023-12-28T05:49:31.584Z,62.75
2023-12-28T05:50:30.482Z,59.16
2023-12-28T05:51:30.490Z,60.43
2023-12-28T05:52:30.517Z,61.35
2023-12-28T05:53:30.449Z,60.03
2023-12-28T05:54:30.489Z,60.73
2023-12-28T05:55:30.451Z,60.58
2023-12-28T05:56:30.436Z,60.59
2023-12-28T05:57:30.464Z,61.68
2023-12-28T05:58:30.434Z,60.58
2023-12-28T05:59:30.434Z,60.32
2023-12-28T06:00:30.456Z,58.73
2023-12-28T06:01:30.453Z,61.58
2023-12-28T06:02:30.410Z,59.57
2023-12-28T06:03:30.511Z,58.69
2023-12-28T06:04:30.550Z,61.21
2023-12-28T06:05:30.414Z,59.47
2023-12-28T06:06:30.424Z,57.39
2023-12-28T06:07:30.381Z,60.11
2023-12-28T06:08:30.359Z,61.11
2023-12-28T06:09:30.387Z,61.06
2023-12-28T06:10:30.342Z,60.32
2023-12-28T06:11:30.348Z,57.86
2023-12-28T06:12:30.357Z,61.08
2023-12-28T06:13:30.334Z,59.54
2023-12-28T06:14:30.423Z,59.97
2023-12-28T06:15:30.366Z,61.08
2023-12-28T06:16:30.408Z,61.32
2023-12-28T06:17:32.202Z,60.62
2023-12-28T06:18:30.390Z,60.41
2023-12-28T06:19:30.361Z,60.77
2023-12-28T06:20:30.287Z,59.94
2023-12-28T06:21:30.314Z,59.28
2023-12-28T06:22:30.284Z,58.78
2023-12-28T06:23:30.283Z,59.42
2023-12-28T06:24:30.321Z,59.57
2023-12-28T06:25:30.304Z,60.36
2023-12-28T06:26:30.237Z,60.59
2023-12-28T06:27:31.368Z,61.15
2023-12-28T06:28:30.236Z,61.17
2023-12-28T06:29:30.243Z,59.94
2023-12-28T06:30:30.274Z,60.19
2023-12-28T06:31:30.301Z,61.06
2023-12-28T06:32:31.512Z,60.09
2023-12-28T06:33:31.340Z,58.57
2023-12-28T06:34:30.354Z,59.75
2023-12-28T06:35:30.196Z,62.13
2023-12-28T06:36:30.214Z,60.20
2023-12-28T06:37:30.206Z,60.59
2023-12-28T06:38:30.175Z,58.57
2023-12-28T06:39:30.191Z,60.02
2023-12-28T06:40:30.162Z,60.79
2023-12-28T06:41:30.192Z,60.48
2023-12-28T06:42:30.179Z,58.72
2023-12-28T06:43:30.156Z,60.86
2023-12-28T06:44:30.136Z,59.40
2023-12-28T06:45:30.146Z,62.04
2023-12-28T06:46:30.152Z,58.80
2023-12-28T06:47:30.174Z,62.64
2023-12-28T06:48:30.316Z,61.26
2023-12-28T06:49:30.193Z,60.33
2023-12-28T06:50:31.086Z,58.81
2023-12-28T06:51:30.097Z,59.17
2023-12-28T06:52:30.075Z,60.45
2023-12-28T06:53:30.099Z,59.08
2023-12-28T06:54:30.079Z,59.26
2023-12-28T06:55:30.052Z,59.40
2023-12-28T06:56:30.044Z,59.52
2023-12-28T06:57:30.078Z,58.60
2023-12-28T06:58:30.132Z,59.46
2023-12-28T06:59:30.036Z,59.98
2023-12-28T07:00:30.073Z,56.94
2023-12-28T07:01:30.154Z,57.43
2023-12-28T07:02:30.006Z,59.36
2023-12-28T07:03:30.063Z,58.56
2023-12-28T07:04:30.032Z,59.34
2023-12-28T07:05:30.140Z,60.20
2023-12-28T07:06:30.065Z,59.85
2023-12-28T07:07:30.006Z,59.41
2023-12-28T07:08:31.432Z,60.68
2023-12-28T07:09:29.980Z,62.26
2023-12-28T07:10:29.961Z,60.09
2023-12-28T07:11:29.949Z,59.39
2023-12-28T07:12:29.966Z,63.24
2023-12-28T07:13:29.945Z,58.22
2023-12-28T07:14:30.255Z,59.76
2023-12-28T07:15:29.939Z,60.94
2023-12-28T07:16:29.905Z,59.92
2023-12-28T07:17:29.937Z,59.52
2023-12-28T07:18:30.336Z,59.34
2023-12-28T07:19:29.980Z,58.72
2023-12-28T07:20:29.916Z,58.56
2023-12-28T07:21:29.913Z,58.86
2023-12-28T07:22:29.887Z,61.44
2023-12-28T07:23:29.852Z,64.19
2023-12-28T07:24:29.979Z,60.53
2023-12-28T07:25:29.870Z,59.49
2023-12-28T07:26:29.869Z,58.46
2023-12-28T07:27:29.887Z,58.54
2023-12-28T07:28:29.815Z,60.23
2023-12-28T07:29:29.817Z,59.31
2023-12-28T07:30:29.837Z,60.10
2023-12-28T07:31:29.896Z,61.07
2023-12-28T07:32:29.850Z,61.25
2023-12-28T07:33:29.943Z,61.17
2023-12-28T07:34:29.879Z,59.42
2023-12-28T07:35:29.782Z,59.55
2023-12-28T07:36:30.787Z,60.83
2023-12-28T07:37:29.880Z,59.45
2023-12-28T07:38:29.766Z,57.91
2023-12-28T07:39:29.818Z,58.20
2023-12-28T07:40:29.771Z,60.46
2023-12-28T07:41:29.741Z,59.11
2023-12-28T07:42:29.836Z,59.07
2023-12-28T07:43:29.726Z,60.59
2023-12-28T07:44:29.708Z,58.33
2023-12-28T07:45:29.799Z,58.18
2023-12-28T07:46:29.721Z,57.44
2023-12-28T07:47:29.720Z,58.14
2023-12-28T07:48:29.774Z,58.63
2023-12-28T07:49:29.709Z,59.75
2023-12-28T07:50:30.439Z,61.35
2023-12-28T07:51:29.698Z,59.76
2023-12-28T07:52:29.667Z,60.11
2023-12-28T07:53:29.710Z,59.69
2023-12-28T07:54:29.693Z,60.27
2023-12-28T07:55:29.673Z,58.85
2023-12-28T07:56:29.647Z,59.43
2023-12-28T07:57:29.675Z,59.53
2023-12-28T07:58:29.727Z,59.30
2023-12-28T07:59:29.623Z,59.80
2023-12-28T08:00:29.635Z,60.34
2023-12-28T08:01:29.673Z,60.52
2023-12-28T08:02:29.596Z,60.54
2023-12-28T08:03:29.646Z,60.44
2023-12-28T08:04:29.717Z,61.70
2023-12-28T08:05:29.619Z,61.84
2023-12-28T08:06:29.606Z,59.95
2023-12-28T08:07:29.586Z,59.70
2023-12-28T08:08:29.566Z,60.29
2023-12-28T08:09:29.617Z,58.30
2023-12-28T08:10:29.567Z,59.62
2023-12-28T08:11:29.551Z,60.86
2023-12-28T08:12:29.733Z,63.00
2023-12-28T08:13:29.531Z,59.49
2023-12-28T08:14:29.526Z,61.25
2023-12-28T08:15:29.567Z,60.30
2023-12-28T08:16:29.511Z,60.97
2023-12-28T08:17:29.551Z,59.89
2023-12-28T08:18:29.584Z,58.57
2023-12-28T08:19:29.575Z,61.00
2023-12-28T08:20:29.524Z,62.14
2023-12-28T08:21:29.531Z,61.03
2023-12-28T08:22:29.483Z,60.23
2023-12-28T08:23:29.467Z,60.53
2023-12-28T08:24:29.511Z,60.51
2023-12-28T08:25:29.473Z,62.24
2023-12-28T08:26:29.613Z,59.60
2023-12-28T08:27:29.505Z,60.94
2023-12-28T08:28:29.445Z,59.17
2023-12-28T08:29:29.480Z,59.80
2023-12-28T08:30:29.479Z,60.96
2023-12-28T08:31:29.605Z,62.47
2023-12-28T08:32:29.517Z,61.90
2023-12-28T08:33:29.569Z,61.30
2023-12-28T08:34:29.577Z,58.87
2023-12-28T08:35:29.416Z,59.29
2023-12-28T08:36:29.720Z,62.84
2023-12-28T08:37:29.380Z,60.20
2023-12-28T08:38:29.377Z,62.41
2023-12-28T08:39:29.396Z,61.63
2023-12-28T08:40:29.368Z,63.47
2023-12-28T08:41:29.358Z,63.59
2023-12-28T08:42:29.392Z,63.24
2023-12-28T08:43:29.368Z,61.48
2023-12-28T08:44:29.331Z,61.33
2023-12-28T08:45:29.950Z,61.88
2023-12-28T08:46:29.317Z,61.94
2023-12-28T08:47:29.360Z,60.30
2023-12-28T08:48:29.426Z,60.84
2023-12-28T08:49:29.327Z,60.19
2023-12-28T08:50:29.310Z,62.24
2023-12-28T08:51:29.320Z,59.10
2023-12-28T08:52:29.288Z,60.56
2023-12-28T08:53:29.286Z,62.69
2023-12-28T08:54:29.300Z,60.75
2023-12-28T08:55:29.315Z,62.45
2023-12-28T08:56:29.256Z,62.40
2023-12-28T08:57:36.199Z,60.25
2023-12-28T08:58:30.293Z,58.54
2023-12-28T08:59:29.260Z,61.17
2023-12-28T09:00:29.330Z,61.44
2023-12-28T09:01:29.293Z,60.67
2023-12-28T09:02:29.206Z,61.47
2023-12-28T09:03:29.276Z,60.00
2023-12-28T09:04:29.236Z,59.21
2023-12-28T09:05:29.235Z,62.07
2023-12-28T09:06:29.273Z,60.40
2023-12-28T09:07:29.180Z,59.79
2023-12-28T09:08:29.171Z,61.33
2023-12-28T09:09:29.215Z,59.15
2023-12-28T09:10:29.159Z,61.06
2023-12-28T09:11:29.163Z,61.86
2023-12-28T09:12:29.178Z,61.10
2023-12-28T09:13:29.222Z,61.44
2023-12-28T09:14:29.181Z,60.73
2023-12-28T09:15:29.208Z,60.95
2023-12-28T09:16:29.114Z,59.23
2023-12-28T09:17:29.134Z,62.42
2023-12-28T09:18:29.174Z,61.80
2023-12-28T09:19:29.170Z,61.53
2023-12-28T09:20:29.109Z,61.97
2023-12-28T09:21:29.213Z,62.05
2023-12-28T09:22:31.513Z,62.69
2023-12-28T09:23:29.057Z,61.03
2023-12-28T09:24:29.099Z,60.08
2023-12-28T09:25:29.034Z,60.58
2023-12-28T09:26:29.028Z,61.63
2023-12-28T09:27:29.062Z,61.01
2023-12-28T09:28:29.008Z,62.00
2023-12-28T09:29:29.017Z,60.95
2023-12-28T09:30:30.054Z,62.59
2023-12-28T09:31:29.023Z,61.12
2023-12-28T09:32:29.027Z,63.76
2023-12-28T09:33:29.030Z,61.15
2023-12-28T09:34:29.047Z,60.77
2023-12-28T09:35:29.031Z,61.68
2023-12-28T09:36:29.020Z,60.64
2023-12-28T09:37:28.988Z,61.10
2023-12-28T09:38:28.956Z,63.69
2023-12-28T09:39:29.007Z,61.57
2023-12-28T09:40:29.032Z,60.86
2023-12-28T09:41:29.931Z,62.93
2023-12-28T09:42:28.931Z,62.03
2023-12-28T09:43:28.924Z,63.16
2023-12-28T09:44:28.909Z,61.54
2023-12-28T09:45:28.942Z,60.20
2023-12-28T09:46:28.900Z,61.65
2023-12-28T09:47:28.998Z,60.05
2023-12-28T09:48:29.016Z,60.99
2023-12-28T09:49:28.923Z,62.65
2023-12-28T09:50:28.886Z,62.16
2023-12-28T09:51:28.886Z,62.30
2023-12-28T09:52:28.854Z,63.14
2023-12-28T09:53:28.885Z,63.35
2023-12-28T09:54:28.864Z,63.48
2023-12-28T09:55:28.825Z,62.56
2023-12-28T09:56:30.849Z,61.24
2023-12-28T09:57:29.986Z,63.02
2023-12-28T09:58:28.820Z,60.46
2023-12-28T09:59:28.824Z,62.32
2023-12-28T10:00:28.883Z,62.60
2023-12-28T10:01:28.895Z,64.15
2023-12-28T10:02:28.802Z,62.67
2023-12-28T10:03:28.868Z,62.46
2023-12-28T10:04:29.872Z,61.23
2023-12-28T10:05:28.800Z,62.15
2023-12-28T10:06:28.808Z,61.33
2023-12-28T10:07:28.769Z,60.31
2023-12-28T10:08:28.769Z,61.81
2023-12-28T10:09:28.770Z,61.40
2023-12-28T10:10:28.794Z,62.66
2023-12-28T10:11:28.801Z,61.82
2023-12-28T10:12:28.795Z,62.42
2023-12-28T10:13:28.748Z,63.05
2023-12-28T10:14:28.722Z,62.09
2023-12-28T10:15:28.744Z,61.16
2023-12-28T10:16:28.758Z,60.75
2023-12-28T10:17:28.742Z,60.90
2023-12-28T10:18:28.843Z,61.61
2023-12-28T10:19:28.749Z,61.21
2023-12-28T10:20:28.689Z,62.37
2023-12-28T10:21:28.691Z,61.78
2023-12-28T10:22:28.677Z,61.37
2023-12-28T10:23:28.687Z,61.91
2023-12-28T10:24:28.704Z,61.12
2023-12-28T10:25:28.655Z,62.25
2023-12-28T10:26:28.634Z,62.34
2023-12-28T10:27:28.680Z,61.13
2023-12-28T10:28:29.671Z,62.67
2023-12-28T10:29:28.634Z,62.25
2023-12-28T10:30:28.704Z,61.82
2023-12-28T10:31:28.760Z,59.92
2023-12-28T10:32:28.705Z,62.02
2023-12-28T10:33:28.715Z,61.40
2023-12-28T10:34:28.677Z,61.65
2023-12-28T10:35:28.600Z,61.69
2023-12-28T10:36:28.644Z,63.51
2023-12-28T10:37:28.567Z,62.59
2023-12-28T10:38:28.563Z,61.92
2023-12-28T10:39:28.638Z,61.95
2023-12-28T10:40:28.637Z,61.78
2023-12-28T10:41:28.545Z,62.20
2023-12-28T10:42:28.574Z,63.10
2023-12-28T10:43:28.530Z,62.77
2023-12-28T10:44:28.669Z,61.50
2023-12-28T10:45:28.559Z,60.83
2023-12-28T10:46:28.523Z,63.35
2023-12-28T10:47:28.525Z,62.18
2023-12-28T10:48:28.604Z,61.79
2023-12-28T10:49:28.669Z,62.34
2023-12-28T10:50:28.516Z,62.50
2023-12-28T10:51:28.562Z,62.04
2023-12-28T10:52:28.480Z,61.79
2023-12-28T10:53:28.465Z,63.84
2023-12-28T10:54:28.518Z,62.05
2023-12-28T10:55:28.520Z,62.77
2023-12-28T10:56:28.451Z,59.63
2023-12-28T10:57:28.856Z,60.13
2023-12-28T10:58:28.468Z,62.84
2023-12-28T10:59:28.545Z,60.78
2023-12-28T11:00:28.484Z,64.11
2023-12-28T11:01:28.543Z,71.08
2023-12-28T11:02:28.429Z,64.96
2023-12-28T11:03:28.503Z,64.25
2023-12-28T11:04:29.399Z,67.61
2023-12-28T11:05:28.432Z,65.98
2023-12-28T11:06:28.449Z,63.38
2023-12-28T11:07:28.370Z,62.83
2023-12-28T11:08:28.363Z,61.51
2023-12-28T11:09:28.375Z,61.62
2023-12-28T11:10:28.356Z,62.05
2023-12-28T11:11:28.359Z,62.02
2023-12-28T11:12:28.400Z,62.74
2023-12-28T11:13:28.325Z,61.55
2023-12-28T11:14:28.320Z,61.29
2023-12-28T11:15:28.325Z,61.45
2023-12-28T11:16:28.315Z,61.04
2023-12-28T11:17:28.388Z,60.80
2023-12-28T11:18:28.397Z,60.26
2023-12-28T11:19:28.352Z,61.35
2023-12-28T11:20:28.293Z,61.08
2023-12-28T11:21:28.318Z,60.85
2023-12-28T11:22:28.281Z,59.97
2023-12-28T11:23:28.286Z,59.39
2023-12-28T11:24:28.283Z,60.70
2023-12-28T11:25:28.261Z,62.05
2023-12-28T11:26:28.269Z,59.98
2023-12-28T11:27:28.251Z,60.29
2023-12-28T11:28:28.228Z,61.79
2023-12-28T11:29:28.216Z,62.36
2023-12-28T11:30:28.316Z,60.24
2023-12-28T11:31:28.292Z,60.02
2023-12-28T11:32:28.227Z,59.28
2023-12-28T11:33:28.258Z,59.77
2023-12-28T11:34:28.286Z,59.77
2023-12-28T11:35:28.173Z,61.28
2023-12-28T11:36:28.227Z,60.20
2023-12-28T11:37:28.172Z,60.27
2023-12-28T11:38:28.168Z,61.15
2023-12-28T11:39:28.207Z,61.25
2023-12-28T11:40:28.151Z,59.78
2023-12-28T11:41:28.153Z,60.99
2023-12-28T11:42:28.147Z,59.62
2023-12-28T11:43:28.125Z,60.83
2023-12-28T11:44:28.112Z,59.59
2023-12-28T11:45:28.149Z,62.51
2023-12-28T11:46:28.099Z,60.27
2023-12-28T11:47:28.153Z,62.33
2023-12-28T11:48:28.300Z,61.64
2023-12-28T11:49:28.140Z,59.70
2023-12-28T11:50:28.073Z,60.31
2023-12-28T11:51:28.088Z,60.60
2023-12-28T11:52:45.731Z,62.15
2023-12-28T11:53:29.084Z,58.40
2023-12-28T11:54:28.087Z,60.43
2023-12-28T11:55:28.064Z,60.99
2023-12-28T11:56:28.066Z,60.00
2023-12-28T11:57:28.069Z,60.73
2023-12-28T11:58:28.038Z,61.26
2023-12-28T11:59:28.014Z,60.33
2023-12-28T12:00:28.228Z,59.36
2023-12-28T12:01:28.064Z,59.97
2023-12-28T12:02:28.066Z,60.24
2023-12-28T12:03:28.175Z,60.68
2023-12-28T12:04:29.057Z,61.50
2023-12-28T12:05:28.031Z,61.34
2023-12-28T12:06:28.181Z,58.72
2023-12-28T12:07:27.983Z,60.50
2023-12-28T12:08:27.963Z,59.83
2023-12-28T12:09:27.974Z,60.82
2023-12-28T12:10:28.667Z,60.91
2023-12-28T12:11:27.952Z,62.75
2023-12-28T12:12:28.025Z,61.68
2023-12-28T12:13:27.925Z,61.12
2023-12-28T12:14:27.968Z,61.07
2023-12-28T12:15:27.953Z,59.92
2023-12-28T12:16:27.912Z,60.24
2023-12-28T12:17:28.100Z,60.42
2023-12-28T12:18:27.944Z,60.73
2023-12-28T12:19:28.023Z,60.39
2023-12-28T12:20:27.879Z,61.02
2023-12-28T12:21:27.943Z,60.44
2023-12-28T12:22:29.734Z,61.16
2023-12-28T12:23:28.873Z,62.09
2023-12-28T12:24:27.881Z,61.40
2023-12-28T12:25:27.868Z,60.09
2023-12-28T12:26:27.842Z,61.00
2023-12-28T12:27:27.854Z,61.81
2023-12-28T12:28:27.821Z,61.31
2023-12-28T12:29:29.484Z,61.79
2023-12-28T12:30:28.879Z,61.79
2023-12-28T12:31:27.982Z,61.26
2023-12-28T12:32:27.871Z,62.15
2023-12-28T12:33:27.932Z,61.41
2023-12-28T12:34:28.061Z,59.22
2023-12-28T12:35:27.784Z,60.13
2023-12-28T12:36:27.785Z,61.53
2023-12-28T12:37:27.807Z,60.88
2023-12-28T12:38:27.762Z,61.43
2023-12-28T12:39:27.771Z,60.87
2023-12-28T12:40:27.757Z,61.67
2023-12-28T12:41:27.764Z,60.07
2023-12-28T12:42:27.784Z,61.14
2023-12-28T12:43:27.744Z,60.03
2023-12-28T12:44:27.762Z,62.05
2023-12-28T12:45:27.740Z,61.76
2023-12-28T12:46:27.702Z,63.54
2023-12-28T12:47:27.775Z,61.57
2023-12-28T12:48:27.999Z,62.59
2023-12-28T12:49:27.957Z,62.87
2023-12-28T12:50:27.687Z,62.15
2023-12-28T12:51:27.722Z,60.76
2023-12-28T12:52:27.678Z,59.48